sensor_id;sensor_type;location;lat;lon;timestamp;P1;durP1;ratioP1;P2;durP2;ratioP2
33206;SDS011;19565;46.602;11.534;2023-08-20T00:01:26;2.47;;;2.28;;
33206;SDS011;19565;46.602;11.534;2023-08-20T00:03:55;3.97;;;3.58;;
33206;SDS011;19565;46.602;11.534;2023-08-20T00:06:24;2.22;;;2.13;;
33206;SDS011;19565;46.602;11.534;2023-08-20T00:08:52;5.63;;;3.00;;
33206;SDS011;19565;46.602;11.534;2023-08-20T00:11:20;3.58;;;3.28;;
33206;SDS011;19565;46.602;11.534;2023-08-20T00:13:49;4.78;;;2.97;;
33206;SDS011;19565;46.602;11.534;2023-08-20T00:16:18;2.50;;;2.30;;
33206;SDS011;19565;46.602;11.534;2023-08-20T00:18:46;2.75;;;2.55;;
33206;SDS011;19565;46.602;11.534;2023-08-20T00:21:15;3.05;;;2.72;;
33206;SDS011;19565;46.602;11.534;2023-08-20T00:23:43;3.00;;;2.33;;
33206;SDS011;19565;46.602;11.534;2023-08-20T00:26:11;2.28;;;1.98;;
33206;SDS011;19565;46.602;11.534;2023-08-20T00:28:40;2.40;;;2.20;;
33206;SDS011;19565;46.602;11.534;2023-08-20T00:31:09;2.95;;;2.20;;
33206;SDS011;19565;46.602;11.534;2023-08-20T00:33:37;1.65;;;1.55;;
33206;SDS011;19565;46.602;11.534;2023-08-20T00:36:16;4.10;;;2.70;;
33206;SDS011;19565;46.602;11.534;2023-08-20T00:38:44;3.22;;;2.20;;
33206;SDS011;19565;46.602;11.534;2023-08-20T00:41:12;2.97;;;2.58;;
33206;SDS011;19565;46.602;11.534;2023-08-20T00:43:40;7.95;;;2.42;;
33206;SDS011;19565;46.602;11.534;2023-08-20T00:46:09;3.53;;;2.83;;
33206;SDS011;19565;46.602;11.534;2023-08-20T00:48:39;3.65;;;2.53;;
33206;SDS011;19565;46.602;11.534;2023-08-20T00:51:07;2.97;;;2.75;;
33206;SDS011;19565;46.602;11.534;2023-08-20T00:53:35;2.78;;;2.30;;
33206;SDS011;19565;46.602;11.534;2023-08-20T00:56:03;3.20;;;2.90;;
33206;SDS011;19565;46.602;11.534;2023-08-20T00:58:31;2.60;;;2.40;;
33206;SDS011;19565;46.602;11.534;2023-08-20T01:00:59;2.78;;;2.53;;
33206;SDS011;19565;46.602;11.534;2023-08-20T01:03:29;2.92;;;2.60;;
33206;SDS011;19565;46.602;11.534;2023-08-20T01:05:58;12.10;;;3.20;;
33206;SDS011;19565;46.602;11.534;2023-08-20T01:08:33;2.50;;;2.30;;
33206;SDS011;19565;46.602;11.534;2023-08-20T01:11:06;2.63;;;2.42;;
33206;SDS011;19565;46.602;11.534;2023-08-20T01:13:43;4.00;;;2.33;;
33206;SDS011;19565;46.602;11.534;2023-08-20T01:16:12;3.17;;;2.10;;
33206;SDS011;19565;46.602;11.534;2023-08-20T01:18:41;2.70;;;2.35;;
33206;SDS011;19565;46.602;11.534;2023-08-20T01:21:11;2.67;;;2.45;;
33206;SDS011;19565;46.602;11.534;2023-08-20T01:26:48;3.65;;;3.03;;
33206;SDS011;19565;46.602;11.534;2023-08-20T01:29:28;5.85;;;3.03;;
33206;SDS011;19565;46.602;11.534;2023-08-20T01:31:56;2.45;;;2.25;;
33206;SDS011;19565;46.602;11.534;2023-08-20T01:34:25;5.97;;;3.25;;
33206;SDS011;19565;46.602;11.534;2023-08-20T01:36:53;9.50;;;2.35;;
33206;SDS011;19565;46.602;11.534;2023-08-20T01:39:21;2.88;;;2.58;;
33206;SDS011;19565;46.602;11.534;2023-08-20T01:41:50;3.47;;;3.25;;
33206;SDS011;19565;46.602;11.534;2023-08-20T01:44:18;6.30;;;1.98;;
33206;SDS011;19565;46.602;11.534;2023-08-20T01:46:48;2.20;;;1.90;;
33206;SDS011;19565;46.602;11.534;2023-08-20T01:49:16;2.17;;;1.95;;
33206;SDS011;19565;46.602;11.534;2023-08-20T01:51:44;2.25;;;2.08;;
33206;SDS011;19565;46.602;11.534;2023-08-20T01:54:12;3.33;;;2.10;;
33206;SDS011;19565;46.602;11.534;2023-08-20T01:56:40;3.50;;;2.58;;
33206;SDS011;19565;46.602;11.534;2023-08-20T01:59:08;1.60;;;1.48;;
33206;SDS011;19565;46.602;11.534;2023-08-20T02:01:36;2.47;;;2.03;;
33206;SDS011;19565;46.602;11.534;2023-08-20T02:04:05;2.03;;;1.73;;
33206;SDS011;19565;46.602;11.534;2023-08-20T02:06:33;1.63;;;1.52;;
33206;SDS011;19565;46.602;11.534;2023-08-20T02:09:01;2.10;;;1.90;;
33206;SDS011;19565;46.602;11.534;2023-08-20T02:11:30;2.95;;;2.58;;
33206;SDS011;19565;46.602;11.534;2023-08-20T02:14:01;8.88;;;3.40;;
33206;SDS011;19565;46.602;11.534;2023-08-20T02:16:30;3.72;;;2.28;;
33206;SDS011;19565;46.602;11.534;2023-08-20T02:18:58;6.85;;;1.55;;
33206;SDS011;19565;46.602;11.534;2023-08-20T02:21:28;2.97;;;1.80;;
33206;SDS011;19565;46.602;11.534;2023-08-20T02:23:56;3.75;;;2.03;;
33206;SDS011;19565;46.602;11.534;2023-08-20T02:26:24;1.38;;;1.23;;
33206;SDS011;19565;46.602;11.534;2023-08-20T02:28:52;1.58;;;1.08;;
33206;SDS011;19565;46.602;11.534;2023-08-20T02:31:20;1.50;;;1.02;;
33206;SDS011;19565;46.602;11.534;2023-08-20T02:33:48;1.48;;;0.98;;
33206;SDS011;19565;46.602;11.534;2023-08-20T02:36:16;2.42;;;1.65;;
33206;SDS011;19565;46.602;11.534;2023-08-20T02:38:45;1.95;;;1.60;;
33206;SDS011;19565;46.602;11.534;2023-08-20T02:41:13;2.22;;;1.73;;
33206;SDS011;19565;46.602;11.534;2023-08-20T02:43:42;1.30;;;1.20;;
33206;SDS011;19565;46.602;11.534;2023-08-20T02:46:10;1.98;;;1.77;;
33206;SDS011;19565;46.602;11.534;2023-08-20T02:48:38;2.67;;;1.27;;
33206;SDS011;19565;46.602;11.534;2023-08-20T02:51:06;1.67;;;1.55;;
33206;SDS011;19565;46.602;11.534;2023-08-20T02:53:34;3.05;;;2.75;;
33206;SDS011;19565;46.602;11.534;2023-08-20T02:56:04;2.72;;;1.75;;
33206;SDS011;19565;46.602;11.534;2023-08-20T02:58:32;2.85;;;1.58;;
33206;SDS011;19565;46.602;11.534;2023-08-20T03:00:59;2.70;;;1.58;;
33206;SDS011;19565;46.602;11.534;2023-08-20T03:03:27;2.45;;;2.20;;
33206;SDS011;19565;46.602;11.534;2023-08-20T03:05:55;2.35;;;2.15;;
33206;SDS011;19565;46.602;11.534;2023-08-20T03:08:24;1.80;;;0.88;;
33206;SDS011;19565;46.602;11.534;2023-08-20T03:10:52;2.50;;;1.70;;
33206;SDS011;19565;46.602;11.534;2023-08-20T03:13:21;4.47;;;2.53;;
33206;SDS011;19565;46.602;11.534;2023-08-20T03:15:49;1.48;;;1.38;;
33206;SDS011;19565;46.602;11.534;2023-08-20T03:18:18;1.95;;;1.70;;
33206;SDS011;19565;46.602;11.534;2023-08-20T03:20:46;2.33;;;1.30;;
33206;SDS011;19565;46.602;11.534;2023-08-20T03:23:14;3.08;;;2.50;;
33206;SDS011;19565;46.602;11.534;2023-08-20T03:25:42;3.50;;;2.97;;
33206;SDS011;19565;46.602;11.534;2023-08-20T03:28:10;1.33;;;1.23;;
33206;SDS011;19565;46.602;11.534;2023-08-20T03:30:39;2.60;;;1.75;;
33206;SDS011;19565;46.602;11.534;2023-08-20T03:33:07;11.85;;;2.60;;
33206;SDS011;19565;46.602;11.534;2023-08-20T03:35:35;3.67;;;1.55;;
33206;SDS011;19565;46.602;11.534;2023-08-20T03:38:03;1.65;;;1.55;;
33206;SDS011;19565;46.602;11.534;2023-08-20T03:40:31;3.15;;;1.65;;
33206;SDS011;19565;46.602;11.534;2023-08-20T03:42:59;2.67;;;1.95;;
33206;SDS011;19565;46.602;11.534;2023-08-20T03:45:27;2.40;;;1.63;;
33206;SDS011;19565;46.602;11.534;2023-08-20T03:47:58;2.38;;;1.75;;
33206;SDS011;19565;46.602;11.534;2023-08-20T03:50:26;3.13;;;2.35;;
33206;SDS011;19565;46.602;11.534;2023-08-20T03:52:54;2.47;;;2.15;;
33206;SDS011;19565;46.602;11.534;2023-08-20T03:55:22;3.97;;;1.83;;
33206;SDS011;19565;46.602;11.534;2023-08-20T03:57:50;1.77;;;1.50;;
33206;SDS011;19565;46.602;11.534;2023-08-20T04:00:18;2.10;;;1.77;;
33206;SDS011;19565;46.602;11.534;2023-08-20T04:02:46;2.35;;;1.67;;
33206;SDS011;19565;46.602;11.534;2023-08-20T04:05:15;2.00;;;1.42;;
33206;SDS011;19565;46.602;11.534;2023-08-20T04:07:43;1.80;;;1.40;;
33206;SDS011;19565;46.602;11.534;2023-08-20T04:10:11;1.80;;;1.65;;
33206;SDS011;19565;46.602;11.534;2023-08-20T04:12:39;3.33;;;2.28;;
33206;SDS011;19565;46.602;11.534;2023-08-20T04:15:08;2.50;;;1.92;;
33206;SDS011;19565;46.602;11.534;2023-08-20T04:17:36;1.95;;;1.85;;
33206;SDS011;19565;46.602;11.534;2023-08-20T04:20:05;3.50;;;1.73;;
33206;SDS011;19565;46.602;11.534;2023-08-20T04:22:37;1.33;;;1.13;;
33206;SDS011;19565;46.602;11.534;2023-08-20T04:25:06;1.55;;;1.23;;
33206;SDS011;19565;46.602;11.534;2023-08-20T04:27:34;2.67;;;2.03;;
33206;SDS011;19565;46.602;11.534;2023-08-20T04:30:03;1.55;;;1.45;;
33206;SDS011;19565;46.602;11.534;2023-08-20T04:32:32;2.30;;;1.92;;
33206;SDS011;19565;46.602;11.534;2023-08-20T04:35:00;1.65;;;1.55;;
33206;SDS011;19565;46.602;11.534;2023-08-20T04:37:28;2.60;;;1.42;;
33206;SDS011;19565;46.602;11.534;2023-08-20T04:39:58;1.17;;;1.17;;
33206;SDS011;19565;46.602;11.534;2023-08-20T04:42:25;2.40;;;1.80;;
33206;SDS011;19565;46.602;11.534;2023-08-20T04:44:53;2.58;;;1.98;;
33206;SDS011;19565;46.602;11.534;2023-08-20T04:47:21;2.83;;;2.08;;
33206;SDS011;19565;46.602;11.534;2023-08-20T04:49:49;4.38;;;2.83;;
33206;SDS011;19565;46.602;11.534;2023-08-20T04:52:18;1.85;;;1.38;;
33206;SDS011;19565;46.602;11.534;2023-08-20T04:54:46;3.63;;;2.70;;
33206;SDS011;19565;46.602;11.534;2023-08-20T04:57:16;1.73;;;1.63;;
33206;SDS011;19565;46.602;11.534;2023-08-20T04:59:44;16.58;;;2.65;;
33206;SDS011;19565;46.602;11.534;2023-08-20T05:02:12;2.05;;;1.35;;
33206;SDS011;19565;46.602;11.534;2023-08-20T05:04:40;2.70;;;2.15;;
33206;SDS011;19565;46.602;11.534;2023-08-20T05:07:08;2.53;;;1.77;;
33206;SDS011;19565;46.602;11.534;2023-08-20T05:09:36;3.50;;;2.38;;
33206;SDS011;19565;46.602;11.534;2023-08-20T05:12:04;2.10;;;1.77;;
33206;SDS011;19565;46.602;11.534;2023-08-20T05:14:34;3.58;;;2.65;;
33206;SDS011;19565;46.602;11.534;2023-08-20T05:17:03;4.40;;;3.03;;
33206;SDS011;19565;46.602;11.534;2023-08-20T05:19:31;2.95;;;2.05;;
33206;SDS011;19565;46.602;11.534;2023-08-20T05:21:59;3.25;;;1.73;;
33206;SDS011;19565;46.602;11.534;2023-08-20T05:24:27;3.78;;;2.15;;
33206;SDS011;19565;46.602;11.534;2023-08-20T05:27:07;3.47;;;2.58;;
33206;SDS011;19565;46.602;11.534;2023-08-20T05:29:37;2.20;;;1.77;;
33206;SDS011;19565;46.602;11.534;2023-08-20T05:32:05;3.15;;;1.88;;
33206;SDS011;19565;46.602;11.534;2023-08-20T05:34:33;2.72;;;2.33;;
33206;SDS011;19565;46.602;11.534;2023-08-20T05:37:01;1.40;;;1.25;;
33206;SDS011;19565;46.602;11.534;2023-08-20T05:39:30;4.80;;;2.42;;
33206;SDS011;19565;46.602;11.534;2023-08-20T05:42:03;3.35;;;2.63;;
33206;SDS011;19565;46.602;11.534;2023-08-20T05:44:32;1.83;;;1.60;;
33206;SDS011;19565;46.602;11.534;2023-08-20T05:47:01;1.95;;;1.52;;
33206;SDS011;19565;46.602;11.534;2023-08-20T05:49:29;3.10;;;1.83;;
33206;SDS011;19565;46.602;11.534;2023-08-20T05:51:57;6.38;;;2.05;;
33206;SDS011;19565;46.602;11.534;2023-08-20T05:54:25;3.05;;;2.30;;
33206;SDS011;19565;46.602;11.534;2023-08-20T05:56:53;8.35;;;2.33;;
33206;SDS011;19565;46.602;11.534;2023-08-20T05:59:21;2.58;;;1.75;;
33206;SDS011;19565;46.602;11.534;2023-08-20T06:01:49;4.80;;;4.40;;
33206;SDS011;19565;46.602;11.534;2023-08-20T06:04:18;5.97;;;5.38;;
33206;SDS011;19565;46.602;11.534;2023-08-20T06:06:46;6.35;;;5.82;;
33206;SDS011;19565;46.602;11.534;2023-08-20T06:09:15;13.50;;;5.57;;
33206;SDS011;19565;46.602;11.534;2023-08-20T06:11:43;6.63;;;5.97;;
33206;SDS011;19565;46.602;11.534;2023-08-20T06:14:11;5.28;;;4.88;;
33206;SDS011;19565;46.602;11.534;2023-08-20T06:16:39;5.32;;;4.93;;
33206;SDS011;19565;46.602;11.534;2023-08-20T06:19:07;6.43;;;5.82;;
33206;SDS011;19565;46.602;11.534;2023-08-20T06:21:37;6.03;;;5.63;;
33206;SDS011;19565;46.602;11.534;2023-08-20T06:24:05;6.32;;;5.90;;
33206;SDS011;19565;46.602;11.534;2023-08-20T06:26:35;6.50;;;6.07;;
33206;SDS011;19565;46.602;11.534;2023-08-20T06:29:03;8.32;;;6.65;;
33206;SDS011;19565;46.602;11.534;2023-08-20T06:31:31;8.07;;;7.38;;
33206;SDS011;19565;46.602;11.534;2023-08-20T06:33:59;8.43;;;7.80;;
33206;SDS011;19565;46.602;11.534;2023-08-20T06:36:27;7.50;;;7.00;;
33206;SDS011;19565;46.602;11.534;2023-08-20T06:38:56;8.93;;;8.38;;
33206;SDS011;19565;46.602;11.534;2023-08-20T06:41:24;9.63;;;8.88;;
33206;SDS011;19565;46.602;11.534;2023-08-20T06:43:52;10.75;;;9.93;;
33206;SDS011;19565;46.602;11.534;2023-08-20T06:46:20;8.52;;;7.93;;
33206;SDS011;19565;46.602;11.534;2023-08-20T06:48:48;8.77;;;8.23;;
33206;SDS011;19565;46.602;11.534;2023-08-20T06:51:18;8.93;;;8.23;;
33206;SDS011;19565;46.602;11.534;2023-08-20T06:53:47;8.73;;;8.23;;
33206;SDS011;19565;46.602;11.534;2023-08-20T06:56:17;8.82;;;8.23;;
33206;SDS011;19565;46.602;11.534;2023-08-20T06:58:45;8.45;;;7.85;;
33206;SDS011;19565;46.602;11.534;2023-08-20T07:01:13;9.90;;;9.10;;
33206;SDS011;19565;46.602;11.534;2023-08-20T07:03:42;8.20;;;7.70;;
33206;SDS011;19565;46.602;11.534;2023-08-20T07:06:11;8.50;;;7.90;;
33206;SDS011;19565;46.602;11.534;2023-08-20T07:08:40;8.98;;;8.48;;
33206;SDS011;19565;46.602;11.534;2023-08-20T07:11:08;11.20;;;10.50;;
33206;SDS011;19565;46.602;11.534;2023-08-20T07:13:38;10.32;;;9.65;;
33206;SDS011;19565;46.602;11.534;2023-08-20T07:16:06;9.88;;;9.18;;
33206;SDS011;19565;46.602;11.534;2023-08-20T07:18:34;10.68;;;9.88;;
33206;SDS011;19565;46.602;11.534;2023-08-20T07:21:02;9.73;;;8.93;;
33206;SDS011;19565;46.602;11.534;2023-08-20T07:23:30;12.90;;;9.75;;
33206;SDS011;19565;46.602;11.534;2023-08-20T07:26:04;10.77;;;10.07;;
33206;SDS011;19565;46.602;11.534;2023-08-20T07:28:33;13.10;;;12.30;;
33206;SDS011;19565;46.602;11.534;2023-08-20T07:31:20;10.43;;;9.82;;
33206;SDS011;19565;46.602;11.534;2023-08-20T07:33:48;11.00;;;10.30;;
33206;SDS011;19565;46.602;11.534;2023-08-20T07:36:17;11.93;;;11.18;;
33206;SDS011;19565;46.602;11.534;2023-08-20T07:38:48;16.10;;;12.00;;
33206;SDS011;19565;46.602;11.534;2023-08-20T07:41:16;11.25;;;10.52;;
33206;SDS011;19565;46.602;11.534;2023-08-20T07:43:46;11.45;;;10.65;;
33206;SDS011;19565;46.602;11.534;2023-08-20T07:46:14;9.93;;;9.23;;
33206;SDS011;19565;46.602;11.534;2023-08-20T07:48:44;10.02;;;9.40;;
33206;SDS011;19565;46.602;11.534;2023-08-20T07:51:12;11.35;;;10.55;;
33206;SDS011;19565;46.602;11.534;2023-08-20T07:53:40;9.98;;;9.38;;
33206;SDS011;19565;46.602;11.534;2023-08-20T07:56:08;10.02;;;9.43;;
33206;SDS011;19565;46.602;11.534;2023-08-20T07:58:36;10.00;;;9.35;;
33206;SDS011;19565;46.602;11.534;2023-08-20T08:01:04;14.77;;;10.48;;
33206;SDS011;19565;46.602;11.534;2023-08-20T08:03:32;9.80;;;9.20;;
33206;SDS011;19565;46.602;11.534;2023-08-20T08:06:02;10.43;;;9.65;;
33206;SDS011;19565;46.602;11.534;2023-08-20T08:08:30;11.77;;;10.80;;
33206;SDS011;19565;46.602;11.534;2023-08-20T08:10:58;10.52;;;9.55;;
33206;SDS011;19565;46.602;11.534;2023-08-20T08:13:26;12.32;;;11.52;;
33206;SDS011;19565;46.602;11.534;2023-08-20T08:15:54;12.20;;;11.48;;
33206;SDS011;19565;46.602;11.534;2023-08-20T08:18:21;14.50;;;13.70;;
33206;SDS011;19565;46.602;11.534;2023-08-20T08:20:49;15.35;;;14.50;;
33206;SDS011;19565;46.602;11.534;2023-08-20T08:23:19;16.13;;;15.25;;
33206;SDS011;19565;46.602;11.534;2023-08-20T08:25:47;17.98;;;17.05;;
33206;SDS011;19565;46.602;11.534;2023-08-20T08:28:15;18.02;;;17.02;;
33206;SDS011;19565;46.602;11.534;2023-08-20T08:30:43;19.92;;;18.92;;
33206;SDS011;19565;46.602;11.534;2023-08-20T08:33:11;17.83;;;16.83;;
33206;SDS011;19565;46.602;11.534;2023-08-20T08:35:39;18.42;;;17.42;;
33206;SDS011;19565;46.602;11.534;2023-08-20T08:38:07;20.92;;;19.77;;
33206;SDS011;19565;46.602;11.534;2023-08-20T08:40:36;26.50;;;25.15;;
33206;SDS011;19565;46.602;11.534;2023-08-20T08:43:06;29.25;;;27.63;;
33206;SDS011;19565;46.602;11.534;2023-08-20T08:45:36;40.30;;;37.53;;
33206;SDS011;19565;46.602;11.534;2023-08-20T08:48:04;46.00;;;43.90;;
33206;SDS011;19565;46.602;11.534;2023-08-20T08:50:33;60.72;;;58.03;;
33206;SDS011;19565;46.602;11.534;2023-08-20T08:53:01;56.50;;;53.90;;
33206;SDS011;19565;46.602;11.534;2023-08-20T08:55:29;61.53;;;58.38;;
33206;SDS011;19565;46.602;11.534;2023-08-20T08:57:59;61.45;;;58.75;;
33206;SDS011;19565;46.602;11.534;2023-08-20T09:00:27;62.97;;;60.28;;
33206;SDS011;19565;46.602;11.534;2023-08-20T09:02:56;63.10;;;60.28;;
33206;SDS011;19565;46.602;11.534;2023-08-20T09:05:24;62.65;;;59.95;;
33206;SDS011;19565;46.602;11.534;2023-08-20T09:07:54;64.10;;;61.30;;
33206;SDS011;19565;46.602;11.534;2023-08-20T09:10:25;65.80;;;62.83;;
33206;SDS011;19565;46.602;11.534;2023-08-20T09:12:54;67.25;;;64.30;;
33206;SDS011;19565;46.602;11.534;2023-08-20T09:15:31;65.47;;;62.58;;
33206;SDS011;19565;46.602;11.534;2023-08-20T09:18:01;65.18;;;62.17;;
33206;SDS011;19565;46.602;11.534;2023-08-20T09:23:48;66.65;;;63.75;;
33206;SDS011;19565;46.602;11.534;2023-08-20T09:26:16;67.63;;;64.55;;
33206;SDS011;19565;46.602;11.534;2023-08-20T09:28:44;66.97;;;63.92;;
33206;SDS011;19565;46.602;11.534;2023-08-20T09:34:17;69.30;;;66.30;;
33206;SDS011;19565;46.602;11.534;2023-08-20T09:36:45;70.07;;;66.93;;
33206;SDS011;19565;46.602;11.534;2023-08-20T09:39:13;66.88;;;64.07;;
33206;SDS011;19565;46.602;11.534;2023-08-20T09:41:41;66.85;;;63.85;;
33206;SDS011;19565;46.602;11.534;2023-08-20T09:44:12;78.00;;;74.68;;
33206;SDS011;19565;46.602;11.534;2023-08-20T09:46:42;69.35;;;66.25;;
33206;SDS011;19565;46.602;11.534;2023-08-20T09:49:12;69.15;;;66.15;;
33206;SDS011;19565;46.602;11.534;2023-08-20T09:51:44;69.25;;;66.22;;
33206;SDS011;19565;46.602;11.534;2023-08-20T09:54:28;70.68;;;67.50;;
33206;SDS011;19565;46.602;11.534;2023-08-20T09:57:04;70.57;;;67.45;;
33206;SDS011;19565;46.602;11.534;2023-08-20T09:59:36;69.75;;;66.75;;
33206;SDS011;19565;46.602;11.534;2023-08-20T10:02:05;69.90;;;66.90;;
33206;SDS011;19565;46.602;11.534;2023-08-20T10:04:39;72.65;;;69.28;;
33206;SDS011;19565;46.602;11.534;2023-08-20T10:07:07;70.53;;;67.43;;
33206;SDS011;19565;46.602;11.534;2023-08-20T10:09:38;74.13;;;70.60;;
33206;SDS011;19565;46.602;11.534;2023-08-20T10:12:10;69.07;;;65.97;;
33206;SDS011;19565;46.602;11.534;2023-08-20T10:14:39;68.65;;;65.65;;
33206;SDS011;19565;46.602;11.534;2023-08-20T10:17:08;65.45;;;62.55;;
33206;SDS011;19565;46.602;11.534;2023-08-20T10:19:36;67.97;;;64.88;;
33206;SDS011;19565;46.602;11.534;2023-08-20T10:22:06;69.68;;;66.60;;
33206;SDS011;19565;46.602;11.534;2023-08-20T10:24:41;70.57;;;67.57;;
33206;SDS011;19565;46.602;11.534;2023-08-20T10:27:23;65.78;;;62.67;;
33206;SDS011;19565;46.602;11.534;2023-08-20T10:29:52;69.85;;;66.80;;
33206;SDS011;19565;46.602;11.534;2023-08-20T10:32:43;67.25;;;64.35;;
33206;SDS011;19565;46.602;11.534;2023-08-20T10:35:14;69.75;;;66.75;;
33206;SDS011;19565;46.602;11.534;2023-08-20T10:40:46;68.80;;;65.57;;
33206;SDS011;19565;46.602;11.534;2023-08-20T10:43:28;71.80;;;68.72;;
33206;SDS011;19565;46.602;11.534;2023-08-20T10:48:50;73.28;;;70.03;;
33206;SDS011;19565;46.602;11.534;2023-08-20T10:51:24;72.18;;;68.88;;
33206;SDS011;19565;46.602;11.534;2023-08-20T10:54:03;72.55;;;69.40;;
33206;SDS011;19565;46.602;11.534;2023-08-20T10:56:42;71.38;;;67.80;;
33206;SDS011;19565;46.602;11.534;2023-08-20T10:59:13;71.65;;;68.60;;
33206;SDS011;19565;46.602;11.534;2023-08-20T11:01:46;72.20;;;69.05;;
33206;SDS011;19565;46.602;11.534;2023-08-20T11:04:15;71.63;;;68.53;;
33206;SDS011;19565;46.602;11.534;2023-08-20T11:06:46;72.95;;;69.65;;
33206;SDS011;19565;46.602;11.534;2023-08-20T11:09:16;73.90;;;70.38;;
33206;SDS011;19565;46.602;11.534;2023-08-20T11:11:45;73.82;;;70.60;;
33206;SDS011;19565;46.602;11.534;2023-08-20T11:14:14;73.60;;;70.40;;
33206;SDS011;19565;46.602;11.534;2023-08-20T11:16:43;74.70;;;71.30;;
33206;SDS011;19565;46.602;11.534;2023-08-20T11:19:11;72.47;;;69.28;;
33206;SDS011;19565;46.602;11.534;2023-08-20T11:21:39;73.28;;;70.07;;
33206;SDS011;19565;46.602;11.534;2023-08-20T11:24:10;74.20;;;70.68;;
33206;SDS011;19565;46.602;11.534;2023-08-20T11:26:41;72.07;;;68.85;;
33206;SDS011;19565;46.602;11.534;2023-08-20T11:29:12;71.55;;;68.25;;
33206;SDS011;19565;46.602;11.534;2023-08-20T11:31:47;69.90;;;66.70;;
33206;SDS011;19565;46.602;11.534;2023-08-20T11:34:18;73.85;;;70.55;;
33206;SDS011;19565;46.602;11.534;2023-08-20T11:36:49;73.68;;;70.32;;
33206;SDS011;19565;46.602;11.534;2023-08-20T11:39:21;67.25;;;64.35;;
33206;SDS011;19565;46.602;11.534;2023-08-20T11:41:51;73.80;;;70.15;;
33206;SDS011;19565;46.602;11.534;2023-08-20T11:44:23;71.57;;;68.47;;
33206;SDS011;19565;46.602;11.534;2023-08-20T11:47:13;74.20;;;71.00;;
33206;SDS011;19565;46.602;11.534;2023-08-20T11:49:47;73.47;;;70.38;;
33206;SDS011;19565;46.602;11.534;2023-08-20T11:52:31;72.95;;;69.85;;
33206;SDS011;19565;46.602;11.534;2023-08-20T11:55:08;71.00;;;68.00;;
33206;SDS011;19565;46.602;11.534;2023-08-20T11:57:39;70.32;;;67.30;;
33206;SDS011;19565;46.602;11.534;2023-08-20T12:00:10;69.78;;;66.78;;
33206;SDS011;19565;46.602;11.534;2023-08-20T12:02:54;73.05;;;69.80;;
33206;SDS011;19565;46.602;11.534;2023-08-20T12:05:27;73.10;;;69.80;;
33206;SDS011;19565;46.602;11.534;2023-08-20T12:07:58;74.68;;;71.50;;
33206;SDS011;19565;46.602;11.534;2023-08-20T12:10:32;76.53;;;73.18;;
33206;SDS011;19565;46.602;11.534;2023-08-20T12:13:02;76.75;;;73.45;;
33206;SDS011;19565;46.602;11.534;2023-08-20T12:15:36;75.88;;;72.68;;
33206;SDS011;19565;46.602;11.534;2023-08-20T12:18:06;77.65;;;74.25;;
33206;SDS011;19565;46.602;11.534;2023-08-20T12:20:48;79.55;;;76.15;;
33206;SDS011;19565;46.602;11.534;2023-08-20T12:23:19;75.75;;;72.35;;
33206;SDS011;19565;46.602;11.534;2023-08-20T12:25:53;76.53;;;72.97;;
33206;SDS011;19565;46.602;11.534;2023-08-20T12:28:23;78.93;;;75.50;;
33206;SDS011;19565;46.602;11.534;2023-08-20T12:30:54;78.18;;;74.85;;
33206;SDS011;19565;46.602;11.534;2023-08-20T12:33:25;75.47;;;72.25;;
33206;SDS011;19565;46.602;11.534;2023-08-20T12:35:55;75.90;;;72.15;;
33206;SDS011;19565;46.602;11.534;2023-08-20T12:38:27;75.82;;;72.53;;
33206;SDS011;19565;46.602;11.534;2023-08-20T12:41:04;76.07;;;72.78;;
33206;SDS011;19565;46.602;11.534;2023-08-20T12:43:39;76.32;;;72.93;;
33206;SDS011;19565;46.602;11.534;2023-08-20T12:46:09;73.63;;;70.22;;
33206;SDS011;19565;46.602;11.534;2023-08-20T12:48:41;73.93;;;70.72;;
33206;SDS011;19565;46.602;11.534;2023-08-20T12:51:12;75.97;;;72.57;;
33206;SDS011;19565;46.602;11.534;2023-08-20T12:53:44;76.50;;;72.90;;
33206;SDS011;19565;46.602;11.534;2023-08-20T12:56:17;73.47;;;69.97;;
33206;SDS011;19565;46.602;11.534;2023-08-20T12:58:47;74.35;;;71.05;;
33206;SDS011;19565;46.602;11.534;2023-08-20T13:01:18;72.32;;;69.22;;
33206;SDS011;19565;46.602;11.534;2023-08-20T13:03:49;74.00;;;70.70;;
33206;SDS011;19565;46.602;11.534;2023-08-20T13:06:20;77.03;;;73.68;;
33206;SDS011;19565;46.602;11.534;2023-08-20T13:08:51;76.43;;;73.13;;
33206;SDS011;19565;46.602;11.534;2023-08-20T13:11:25;76.40;;;73.10;;
33206;SDS011;19565;46.602;11.534;2023-08-20T13:13:58;77.35;;;74.03;;
33206;SDS011;19565;46.602;11.534;2023-08-20T13:16:29;82.05;;;78.43;;
33206;SDS011;19565;46.602;11.534;2023-08-20T13:19:00;81.60;;;78.10;;
33206;SDS011;19565;46.602;11.534;2023-08-20T13:21:39;82.13;;;78.63;;
33206;SDS011;19565;46.602;11.534;2023-08-20T13:24:09;78.07;;;74.28;;
33206;SDS011;19565;46.602;11.534;2023-08-20T13:26:42;80.07;;;76.47;;
33206;SDS011;19565;46.602;11.534;2023-08-20T13:29:15;80.53;;;76.88;;
33206;SDS011;19565;46.602;11.534;2023-08-20T13:31:45;82.18;;;78.65;;
33206;SDS011;19565;46.602;11.534;2023-08-20T13:34:16;81.07;;;77.57;;
33206;SDS011;19565;46.602;11.534;2023-08-20T13:36:54;80.53;;;76.93;;
33206;SDS011;19565;46.602;11.534;2023-08-20T13:39:25;78.43;;;74.97;;
33206;SDS011;19565;46.602;11.534;2023-08-20T13:41:57;76.53;;;73.13;;
33206;SDS011;19565;46.602;11.534;2023-08-20T13:44:27;76.35;;;72.75;;
33206;SDS011;19565;46.602;11.534;2023-08-20T13:46:58;77.43;;;73.70;;
33206;SDS011;19565;46.602;11.534;2023-08-20T13:49:29;79.45;;;75.97;;
33206;SDS011;19565;46.602;11.534;2023-08-20T13:51:59;76.88;;;73.47;;
33206;SDS011;19565;46.602;11.534;2023-08-20T13:54:30;80.30;;;76.72;;
33206;SDS011;19565;46.602;11.534;2023-08-20T13:57:02;72.78;;;69.35;;
33206;SDS011;19565;46.602;11.534;2023-08-20T13:59:35;71.65;;;68.38;;
33206;SDS011;19565;46.602;11.534;2023-08-20T14:02:06;75.70;;;72.30;;
33206;SDS011;19565;46.602;11.534;2023-08-20T14:04:36;71.70;;;68.40;;
33206;SDS011;19565;46.602;11.534;2023-08-20T14:07:07;74.15;;;70.95;;
33206;SDS011;19565;46.602;11.534;2023-08-20T14:09:37;73.43;;;70.25;;
33206;SDS011;19565;46.602;11.534;2023-08-20T14:12:12;74.90;;;71.25;;
33206;SDS011;19565;46.602;11.534;2023-08-20T14:14:44;73.03;;;69.82;;
33206;SDS011;19565;46.602;11.534;2023-08-20T14:17:14;74.78;;;71.35;;
33206;SDS011;19565;46.602;11.534;2023-08-20T14:19:45;73.80;;;70.47;;
33206;SDS011;19565;46.602;11.534;2023-08-20T14:22:15;71.30;;;68.20;;
33206;SDS011;19565;46.602;11.534;2023-08-20T14:24:46;72.95;;;69.75;;
33206;SDS011;19565;46.602;11.534;2023-08-20T14:27:18;71.13;;;68.03;;
33206;SDS011;19565;46.602;11.534;2023-08-20T14:29:49;72.63;;;69.40;;
33206;SDS011;19565;46.602;11.534;2023-08-20T14:32:20;67.60;;;64.60;;
33206;SDS011;19565;46.602;11.534;2023-08-20T14:34:53;85.32;;;80.70;;
33206;SDS011;19565;46.602;11.534;2023-08-20T14:37:24;74.38;;;70.70;;
33206;SDS011;19565;46.602;11.534;2023-08-20T14:39:54;77.65;;;74.25;;
33206;SDS011;19565;46.602;11.534;2023-08-20T14:42:26;80.28;;;76.78;;
33206;SDS011;19565;46.602;11.534;2023-08-20T14:44:59;78.75;;;75.03;;
33206;SDS011;19565;46.602;11.534;2023-08-20T14:47:32;64.65;;;61.80;;
33206;SDS011;19565;46.602;11.534;2023-08-20T14:50:02;68.38;;;65.40;;
33206;SDS011;19565;46.602;11.534;2023-08-20T14:52:36;81.70;;;78.00;;